Time;durP1;ratioP1;P1;durP2;ratioP2;P2;SDS_P1;SDS_P2;PMS_P1;PMS_P2;Temp;Humidity;BMP_temperature;BMP_pressure;BME280_temperature;BME280_humidity;BME280_pressure;Samples;Min_cycle;Max_cycle;Signal;HPM_P1;HPM_P2
2023/01/28 00:00:27;;;;;;;36.47;22.20;;;;;;;3.71;69.21;100930.22;5017482;27;101702;-84
2023/01/28 00:02:52;;;;;;;37.27;21.70;;;;;;;3.81;68.96;100939.78;5007895;27;97255;-83
2023/01/28 00:05:18;;;;;;;37.27;21.17;;;;;;;3.78;68.97;100942.38;5021924;27;96882;-84
2023/01/28 00:07:43;;;;;;;33.27;20.03;;;;;;;3.78;69.39;100947.56;5034828;27;97966;-83
2023/01/28 00:10:10;;;;;;;35.53;21.80;;;;;;;3.81;68.85;100950.19;5024369;27;100106;-81
2023/01/28 00:12:35;;;;;;;34.37;19.87;;;;;;;3.74;68.64;100940.59;5032339;27;97100;-83
2023/01/28 00:15:01;;;;;;;32.13;20.10;;;;;;;3.77;68.81;100940.63;5022942;27;97234;-82
2023/01/28 00:17:26;;;;;;;30.10;17.83;;;;;;;3.76;68.95;100943.22;5041975;27;98075;-81
2023/01/28 00:19:52;;;;;;;34.93;19.80;;;;;;;3.68;69.06;100937.13;5003866;27;100989;-82
2023/01/28 00:22:18;;;;;;;32.80;18.57;;;;;;;3.65;69.06;100937.97;5002966;28;97208;-81
2023/01/28 00:24:44;;;;;;;34.80;18.87;;;;;;;3.62;69.18;100927.59;4999196;27;96852;-83
2023/01/28 00:27:10;;;;;;;30.87;18.63;;;;;;;3.65;69.56;100935.38;4992327;28;101502;-81
2023/01/28 00:29:35;;;;;;;27.63;16.33;;;;;;;3.71;69.47;100940.59;4992373;28;101635;-82
2023/01/28 00:32:01;;;;;;;30.00;17.63;;;;;;;3.53;69.42;100904.19;5012269;27;97069;-83
2023/01/28 00:34:28;;;;;;;31.67;18.63;;;;;;;3.66;69.65;100931.91;4994360;28;97963;-83
2023/01/28 00:36:56;;;;;;;28.87;16.90;;;;;;;3.71;69.70;100935.41;4982636;28;101421;-83
2023/01/28 00:39:26;;;;;;;28.37;17.77;;;;;;;3.61;69.60;100923.25;4980947;28;100999;-84
2023/01/28 00:41:51;;;;;;;28.07;16.70;;;;;;;3.69;69.69;100938.84;5004454;28;96763;-82
2023/01/28 00:44:17;;;;;;;27.60;16.87;;;;;;;3.69;70.02;100937.13;4977963;28;97036;-83
2023/01/28 00:46:43;;;;;;;27.87;16.27;;;;;;;3.69;70.13;100933.66;5001319;28;98506;-83
2023/01/28 00:49:09;;;;;;;28.60;16.20;;;;;;;3.71;70.10;100926.75;4991765;28;101444;-82
2023/01/28 00:51:34;;;;;;;26.67;16.27;;;;;;;3.74;70.30;100922.44;5002009;28;97234;-82
2023/01/28 00:54:00;;;;;;;28.03;16.47;;;;;;;3.71;69.98;100918.97;5011319;28;96825;-82
2023/01/28 00:56:26;;;;;;;33.03;17.63;;;;;;;3.74;70.18;100925.03;4985015;28;101683;-81
2023/01/28 00:58:51;;;;;;;27.43;16.43;;;;;;;3.62;69.99;100896.44;4975931;28;101117;-82
2023/01/28 01:01:19;;;;;;;30.07;17.77;;;;;;;3.73;69.90;100918.09;4978562;28;97349;-83
2023/01/28 01:03:45;;;;;;;27.97;16.87;;;;;;;3.75;70.15;100923.28;4968246;28;96829;-82
2023/01/28 01:06:13;;;;;;;34.13;18.37;;;;;;;3.75;70.18;100924.19;4998043;28;98606;-82
2023/01/28 01:08:41;;;;;;;33.40;17.93;;;;;;;3.64;70.05;100907.69;4993089;28;101811;-82
2023/01/28 01:11:10;;;;;;;27.67;18.07;;;;;;;3.72;69.68;100921.53;4987648;28;97727;-82
2023/01/28 01:13:36;;;;;;;30.60;18.13;;;;;;;3.70;69.72;100917.25;4987294;27;96855;-81
2023/01/28 01:16:06;;;;;;;29.47;17.60;;;;;;;3.72;69.81;100936.28;5007426;28;101805;-82
2023/01/28 01:18:32;;;;;;;34.80;18.90;;;;;;;3.60;70.00;100911.97;4998707;28;101127;-81
2023/01/28 01:20:58;;;;;;;33.17;18.77;;;;;;;3.74;70.07;100939.75;5005991;28;96811;-81
2023/01/28 01:23:28;;;;;;;32.07;19.00;;;;;;;3.67;69.87;100927.63;5001235;27;97318;-81
2023/01/28 01:25:55;;;;;;;33.30;18.70;;;;;;;3.73;69.81;100944.06;5018588;27;97860;-80
2023/01/28 01:28:21;;;;;;;30.23;18.07;;;;;;;3.71;69.90;100943.19;4998251;27;101887;-82
2023/01/28 01:30:48;;;;;;;29.07;17.77;;;;;;;3.63;69.67;100924.13;5002657;27;96782;-81
2023/01/28 01:33:13;;;;;;;32.03;18.50;;;;;;;3.62;69.87;100930.19;5023592;27;97173;-81
2023/01/28 01:35:39;;;;;;;28.73;17.60;;;;;;;3.70;69.68;100941.47;5017665;28;102192;-81
2023/01/28 01:38:05;;;;;;;34.00;18.07;;;;;;;3.74;69.41;100952.72;5008798;27;101565;-81
2023/01/28 01:40:30;;;;;;;28.50;17.77;;;;;;;3.70;68.95;100948.41;5026579;27;96837;-82
2023/01/28 01:42:58;;;;;;;29.67;18.03;;;;;;;3.73;69.44;100953.59;5026406;27;97320;-82
2023/01/28 01:45:24;;;;;;;28.00;17.70;;;;;;;3.77;69.54;100963.13;4994296;27;102309;-81
2023/01/28 01:48:01;;;;;;;26.40;16.50;;;;;;;3.78;68.77;100964.84;5021174;27;99997;-81
2023/01/28 01:50:42;;;;;;;24.00;16.03;;;;;;;3.76;69.05;100962.25;5027892;27;96836;-83
2023/01/28 01:53:13;;;;;;;25.57;16.53;;;;;;;3.72;69.09;100965.69;5014084;27;97146;-82
2023/01/28 01:55:42;;;;;;;27.20;17.05;;;;;;;3.67;69.27;100970.03;5014677;27;99207;-81
2023/01/28 01:58:11;;;;;;;25.07;16.23;;;;;;;3.74;69.39;100976.97;5012318;27;101140;-82
2023/01/28 02:00:37;;;;;;;25.23;16.33;;;;;;;3.72;69.43;100980.41;4998445;27;96826;-83
2023/01/28 02:03:03;;;;;;;27.40;16.57;;;;;;;3.71;69.64;100969.16;5010226;28;97388;-82
2023/01/28 02:05:28;;;;;;;24.93;16.07;;;;;;;3.71;69.29;100979.56;5032625;27;97399;-83
2023/01/28 02:08:19;;;;;;;26.17;15.83;;;;;;;3.71;69.54;100974.34;5001468;28;101520;-83
2023/01/28 02:10:46;;;;;;;24.53;16.27;;;;;;;3.59;69.29;100961.31;5017244;27;97335;-82
2023/01/28 02:13:14;;;;;;;25.63;16.03;;;;;;;3.70;69.45;100977.81;5014014;28;97318;-82
2023/01/28 02:15:39;;;;;;;25.97;15.50;;;;;;;3.63;69.59;100968.25;5041374;27;98152;-82
2023/01/28 02:18:05;;;;;;;25.57;16.93;;;;;;;3.70;69.67;100984.75;5014406;27;98229;-82
2023/01/28 02:20:51;;;;;;;22.47;14.83;;;;;;;3.65;69.29;100978.66;5012039;28;96929;-82
2023/01/28 02:23:27;;;;;;;26.13;16.07;;;;;;;3.63;69.40;100973.44;5014164;27;96909;-80
2023/01/28 02:26:07;;;;;;;23.27;15.07;;;;;;;3.66;69.51;100977.78;4984435;28;101837;-81
2023/01/28 02:28:44;;;;;;;26.90;16.47;;;;;;;3.57;69.60;100979.47;5039408;27;98521;-82
2023/01/28 02:31:27;;;;;;;26.87;16.93;;;;;;;3.62;69.51;100980.38;5015613;27;97072;-81
2023/01/28 02:34:07;;;;;;;25.43;16.27;;;;;;;3.62;69.29;100982.09;5008758;28;97324;-81
2023/01/28 02:36:44;;;;;;;24.93;16.70;;;;;;;3.61;69.13;100980.38;5010894;27;101278;-82
2023/01/28 02:39:23;;;;;;;25.20;15.90;;;;;;;3.60;69.51;100981.22;5020716;27;101515;-81
2023/01/28 02:41:55;;;;;;;23.03;15.53;;;;;;;3.41;69.41;100959.50;5020098;27;97366;-81
2023/01/28 02:44:21;;;;;;;24.07;15.30;;;;;;;3.55;69.29;100980.31;5028464;27;97990;-81
2023/01/28 02:49:44;;;;;;;24.30;15.83;;;;;;;3.55;69.27;100981.22;5023199;27;101485;-82
2023/01/28 02:52:16;;;;;;;26.23;15.40;;;;;;;3.59;69.40;100985.56;5013990;27;98507;-81
2023/01/28 02:55:08;;;;;;;25.30;15.73;;;;;;;3.55;69.14;100981.22;5022047;27;96888;-80
2023/01/28 02:57:37;;;;;;;;;;;;;;;3.56;69.30;100988.13;5012688;27;101467;-81
2023/01/28 03:00:26;;;;;;;24.97;14.80;;;;;;;3.57;69.02;100992.47;5001058;27;99865;-82
2023/01/28 03:03:10;;;;;;;21.67;14.23;;;;;;;3.56;69.22;100989.88;5016889;27;96998;-81
2023/01/28 03:06:02;;;;;;;19.87;13.43;;;;;;;3.54;69.29;100984.66;5008225;27;97276;-82
2023/01/28 03:36:49;;;;;;;28.53;16.97;;;;;;;3.50;68.98;100982.06;5013244;27;97309;-83
2023/01/28 03:39:36;;;;;;;28.43;18.30;;;;;;;3.40;69.55;100970.72;5040986;27;98167;-80
2023/01/28 03:42:05;;;;;;;25.73;16.80;;;;;;;3.53;69.28;100990.72;5022962;27;101594;-81
2023/01/28 03:44:51;;;;;;;22.93;16.37;;;;;;;3.52;69.02;100995.88;4991517;27;101693;-81
2023/01/28 03:47:22;;;;;;;21.90;15.60;;;;;;;3.39;69.05;100969.00;5002227;27;97146;-81
2023/01/28 03:49:50;;;;;;;29.03;18.30;;;;;;;3.38;69.26;100967.28;5029278;27;97018;-82
2023/01/28 03:52:20;;;;;;;28.00;18.47;;;;;;;3.50;69.46;100989.84;5003963;27;101589;-81
2023/01/28 03:54:47;;;;;;;28.07;17.60;;;;;;;3.50;69.39;100987.25;5028296;27;101471;-80
2023/01/28 03:57:21;;;;;;;28.33;17.47;;;;;;;3.49;68.83;100990.69;5005177;27;97067;-81
2023/01/28 03:59:48;;;;;;;24.50;17.10;;;;;;;3.31;69.24;100963.75;5024437;27;96826;-81
2023/01/28 04:02:16;;;;;;;29.80;17.80;;;;;;;3.36;69.12;100969.00;5007082;27;101676;-82
2023/01/28 04:04:42;;;;;;;23.97;17.00;;;;;;;3.49;69.04;100995.88;5028054;27;100666;-81
2023/01/28 04:07:09;;;;;;;31.30;19.10;;;;;;;3.42;69.21;100994.97;5032650;27;97394;-80
2023/01/28 04:09:53;;;;;;;25.87;18.47;;;;;;;3.46;69.23;101003.63;5036556;27;97620;-82
2023/01/28 04:12:36;;;;;;;29.67;18.80;;;;;;;3.46;69.20;101003.63;5020111;27;101826;-81
2023/01/28 04:15:14;;;;;;;25.93;17.90;;;;;;;3.48;69.24;101001.94;4998969;27;100510;-83
2023/01/28 04:17:47;;;;;;;24.50;16.47;;;;;;;3.34;69.12;100992.31;5000045;27;97045;-84
2023/01/28 04:20:24;;;;;;;29.33;18.50;;;;;;;3.43;68.95;101006.22;5011536;27;97153;-81
2023/01/28 04:22:50;;;;;;;29.17;17.70;;;;;;;3.42;68.98;100999.31;5015855;27;97579;-81
2023/01/28 04:25:17;;;;;;;29.37;18.30;;;;;;;3.43;69.21;101004.50;5020469;27;101130;-82
2023/01/28 04:27:43;;;;;;;29.87;18.93;;;;;;;3.42;69.00;101007.94;4990395;28;96728;-82
2023/01/28 04:30:15;;;;;;;26.48;17.90;;;;;;;3.33;68.54;100997.53;5017926;27;97239;-82
2023/01/28 04:33:06;;;;;;;27.25;17.92;;;;;;;3.27;68.79;100985.38;5014612;27;98126;-80
2023/01/28 04:36:04;;;;;;;31.30;19.13;;;;;;;3.42;69.20;101010.53;4979997;27;97794;-82
2023/01/28 04:38:40;;;;;;;26.23;17.07;;;;;;;3.26;68.94;100996.63;5022017;27;96833;-83
2023/01/28 04:41:24;;;;;;;28.90;17.50;;;;;;;3.42;68.89;101017.47;5039727;27;97263;-81
2023/01/28 04:43:50;;;;;;;27.50;18.00;;;;;;;3.42;68.58;101023.53;5023485;28;101677;-81
2023/01/28 04:46:18;;;;;;;22.33;15.90;;;;;;;3.31;68.88;101014.78;5019186;28;98343;-81
2023/01/28 04:49:06;;;;;;;26.77;17.23;;;;;;;3.42;68.71;101033.91;5022415;27;96790;-81
2023/01/28 04:51:47;;;;;;;30.90;18.43;;;;;;;3.34;68.70;101018.28;5027611;27;97112;-81
2023/01/28 04:54:32;;;;;;;30.60;18.50;;;;;;;3.42;68.66;101027.84;4995409;27;97801;-81
2023/01/28 04:57:01;;;;;;;27.10;18.30;;;;;;;3.39;68.66;101029.56;5001018;27;100104;-82
2023/01/28 04:59:26;;;;;;;28.03;18.40;;;;;;;3.23;68.78;101001.78;5005745;27;96816;-81
2023/01/28 05:01:52;;;;;;;29.70;18.17;;;;;;;3.36;68.65;101033.88;5030619;27;97499;-81
2023/01/28 05:04:18;;;;;;;35.90;19.53;;;;;;;3.26;68.53;101021.69;5036898;27;101236;-81
2023/01/28 05:06:44;;;;;;;31.47;19.57;;;;;;;3.37;68.79;101045.97;4995526;28;102185;-84
2023/01/28 05:09:15;;;;;;;25.70;18.47;;;;;;;3.36;68.81;101033.88;5015982;27;97089;-82
2023/01/28 05:11:42;;;;;;;28.80;18.63;;;;;;;3.22;68.90;101023.38;5020529;27;97272;-83
2023/01/28 05:14:08;;;;;;;30.83;19.50;;;;;;;3.33;68.91;101042.50;5027265;27;101392;-80
2023/01/28 05:16:43;;;;;;;28.70;19.33;;;;;;;3.33;68.49;101045.09;5005818;27;101879;-85
2023/01/28 05:19:10;;;;;;;29.30;19.87;;;;;;;3.35;68.38;101039.94;5016968;27;98333;-81
2023/01/28 05:21:39;;;;;;;32.57;19.43;;;;;;;3.34;68.44;101046.81;5014959;27;97202;-81
2023/01/28 05:24:12;;;;;;;27.50;19.17;;;;;;;3.29;68.46;101039.91;4973231;28;102237;-82
2023/01/28 05:26:37;;;;;;;30.20;19.17;;;;;;;3.27;68.79;101042.47;5006467;28;97947;-82
2023/01/28 05:29:04;;;;;;;28.07;19.63;;;;;;;3.30;68.16;101041.63;4961312;28;97138;-82
2023/01/28 05:31:30;;;;;;;26.60;18.53;;;;;;;3.26;68.32;101032.94;4965568;28;97085;-81
2023/01/28 05:33:55;;;;;;;28.90;18.40;;;;;;;3.34;68.36;101054.59;4997495;28;100865;-80
2023/01/28 05:36:22;;;;;;;32.70;20.10;;;;;;;3.28;68.07;101051.09;5002443;27;102011;-82
2023/01/28 05:38:47;;;;;;;25.23;18.43;;;;;;;3.30;68.07;101058.06;5017339;27;96768;-81
2023/01/28 05:41:13;;;;;;;30.57;19.53;;;;;;;3.28;68.11;101057.16;4999946;28;97068;-81
2023/01/28 05:43:40;;;;;;;26.30;19.20;;;;;;;3.31;67.77;101058.91;5012363;27;100071;-80
2023/01/28 05:46:24;;;;;;;25.03;18.07;;;;;;;3.30;67.82;101059.78;5018747;28;97560;-82
2023/01/28 05:49:12;;;;;;;25.57;18.40;;;;;;;3.27;67.76;101052.84;4985524;27;97869;-82
2023/01/28 05:51:56;;;;;;;25.90;18.07;;;;;;;3.26;67.93;101066.69;5004089;28;96770;-81
2023/01/28 05:54:23;;;;;;;25.13;17.60;;;;;;;3.23;67.43;101061.47;4984034;28;101822;-80
2023/01/28 05:56:49;;;;;;;28.83;18.97;;;;;;;3.25;67.90;101072.72;5000719;28;101732;-80
2023/01/28 05:59:15;;;;;;;25.90;18.33;;;;;;;3.25;67.89;101070.13;5007813;28;97474;-81
2023/01/28 06:01:42;;;;;;;23.20;17.23;;;;;;;3.24;67.31;101062.34;4988330;28;97369;-84
2023/01/28 06:04:08;;;;;;;26.30;17.70;;;;;;;3.23;67.72;101063.16;4972070;28;101478;-80
2023/01/28 06:06:34;;;;;;;26.03;18.10;;;;;;;3.19;67.56;101046.72;4997907;28;101918;-80
2023/01/28 06:09:02;;;;;;;28.63;18.27;;;;;;;3.27;67.30;101072.75;4996727;28;96840;-80
2023/01/28 06:11:29;;;;;;;24.73;18.37;;;;;;;3.17;67.61;101056.22;5009638;28;97295;-83
2023/01/28 06:14:01;;;;;;;26.30;17.87;;;;;;;3.12;67.42;101060.50;5000504;28;101759;-82
2023/01/28 06:16:46;;;;;;;25.53;17.03;;;;;;;3.24;67.49;101080.50;4999554;28;102606;-83
2023/01/28 06:19:24;;;;;;;25.20;17.13;;;;;;;3.21;67.45;101075.28;4979367;28;97394;-81
2023/01/28 06:21:50;;;;;;;25.17;18.10;;;;;;;3.21;67.67;101081.34;5004106;27;96982;-80
2023/01/28 06:24:17;;;;;;;25.23;17.63;;;;;;;3.26;67.22;101083.94;5014761;27;101411;-81
2023/01/28 06:26:42;;;;;;;23.97;17.43;;;;;;;3.24;66.99;101086.56;5008968;27;101885;-83
2023/01/28 06:29:08;;;;;;;24.40;17.10;;;;;;;3.21;67.32;101073.56;4992186;27;96850;-82
2023/01/28 06:31:33;;;;;;;24.87;17.47;;;;;;;3.23;67.23;101090.03;5023224;27;96809;-83
2023/01/28 06:33:59;;;;;;;24.37;17.53;;;;;;;3.23;67.31;101089.13;5009556;27;97383;-80
2023/01/28 06:36:25;;;;;;;24.67;18.10;;;;;;;3.20;67.11;101081.31;4999656;27;100729;-80
2023/01/28 06:38:50;;;;;;;22.03;16.70;;;;;;;3.19;67.07;101083.03;5028934;27;97276;-81
2023/01/28 06:41:16;;;;;;;20.27;16.13;;;;;;;3.22;67.01;101092.59;5017641;27;97153;-82
2023/01/28 06:43:41;;;;;;;23.30;16.50;;;;;;;3.11;66.69;101076.91;5031700;27;97446;-82
2023/01/28 06:46:07;;;;;;;20.57;14.77;;;;;;;3.06;66.65;101078.63;4994999;27;101422;-82
2023/01/28 06:48:32;;;;;;;18.97;14.30;;;;;;;3.18;67.00;101095.16;5023018;27;97345;-83
2023/01/28 06:50:58;;;;;;;20.63;14.23;;;;;;;3.22;66.66;101108.16;5044374;27;96732;-82
2023/01/28 06:53:23;;;;;;;19.00;14.37;;;;;;;3.23;66.90;101109.88;4999312;27;101463;-83
2023/01/28 06:55:49;;;;;;;18.97;14.07;;;;;;;3.21;66.93;101112.47;5022635;27;101435;-81
2023/01/28 06:58:14;;;;;;;19.17;14.53;;;;;;;3.20;66.75;101109.84;5014109;27;97971;-81
2023/01/28 07:00:40;;;;;;;17.33;14.70;;;;;;;3.13;66.73;101108.94;5024957;27;97127;-81
2023/01/28 07:03:06;;;;;;;19.67;14.87;;;;;;;3.17;66.63;101119.38;5030979;27;100766;-81
2023/01/28 07:05:31;;;;;;;17.07;13.97;;;;;;;3.18;66.55;101118.50;5003825;27;101502;-83
2023/01/28 07:07:57;;;;;;;19.20;13.47;;;;;;;3.11;66.64;101113.22;5014838;27;97307;-82
2023/01/28 07:10:22;;;;;;;19.90;14.00;;;;;;;3.09;66.70;101118.44;4984032;27;97360;-82
2023/01/28 07:12:48;;;;;;;22.10;14.60;;;;;;;2.96;66.50;101090.63;5013037;27;101349;-81
2023/01/28 07:15:14;;;;;;;18.77;13.90;;;;;;;3.07;66.76;101117.53;5032982;27;97538;-82
2023/01/28 07:17:40;;;;;;;17.87;14.17;;;;;;;3.16;66.54;101134.91;5013214;27;97711;-83
2023/01/28 07:20:07;;;;;;;19.40;14.10;;;;;;;3.20;66.55;101148.78;5030237;27;97426;-81
2023/01/28 07:22:33;;;;;;;19.13;13.53;;;;;;;3.17;66.66;101140.13;5024824;27;97626;-82
2023/01/28 07:25:00;;;;;;;19.20;13.87;;;;;;;3.20;66.39;101143.59;4997521;27;101056;-83
2023/01/28 07:27:25;;;;;;;18.13;13.70;;;;;;;3.16;66.46;101145.28;5012794;27;96802;-82
2023/01/28 07:29:51;;;;;;;16.43;13.77;;;;;;;3.18;66.79;101153.97;5039615;27;97097;-83
2023/01/28 07:32:17;;;;;;;19.70;13.63;;;;;;;3.18;66.91;101151.38;5017198;27;101355;-82
2023/01/28 07:34:42;;;;;;;20.63;13.30;;;;;;;3.18;66.64;101153.97;5030135;27;100960;-82
2023/01/28 07:37:08;;;;;;;19.47;14.33;;;;;;;3.01;66.57;101125.25;4991939;27;96922;-83
2023/01/28 07:39:34;;;;;;;16.87;14.03;;;;;;;3.19;66.73;101150.50;5014635;27;97031;-80
2023/01/28 07:42:00;;;;;;;17.03;13.90;;;;;;;3.18;66.34;101149.66;4999596;28;101062;-81
2023/01/28 07:44:31;;;;;;;20.60;15.32;;;;;;;3.17;66.75;101152.22;5021714;27;98308;-80
2023/01/28 07:46:56;;;;;;;16.87;14.17;;;;;;;3.17;66.39;101144.41;5017270;27;97357;-81
2023/01/28 07:49:22;;;;;;;22.27;14.80;;;;;;;3.01;66.51;101117.47;5026932;27;97694;-84
2023/01/28 07:51:49;;;;;;;18.20;14.47;;;;;;;3.15;66.41;101147.03;5017318;27;101987;-82
2023/01/28 07:54:15;;;;;;;17.70;14.27;;;;;;;3.16;66.87;101146.16;5004904;27;101473;-83
2023/01/28 07:56:41;;;;;;;17.87;14.57;;;;;;;3.18;66.46;101147.03;5039113;27;97070;-83
2023/01/28 07:59:06;;;;;;;17.93;14.60;;;;;;;3.16;66.36;101145.28;5007630;27;97257;-82
2023/01/28 08:01:32;;;;;;;19.40;15.20;;;;;;;3.10;66.65;101142.63;5004295;27;101868;-83
2023/01/28 08:03:57;;;;;;;20.37;15.03;;;;;;;3.14;66.41;101155.66;5009003;28;101102;-84
2023/01/28 08:06:23;;;;;;;20.13;15.50;;;;;;;3.16;66.32;101156.53;5044065;27;97333;-79
2023/01/28 08:08:49;;;;;;;19.73;14.70;;;;;;;3.15;66.20;101154.81;5028526;27;97162;-84
2023/01/28 08:11:14;;;;;;;18.50;14.43;;;;;;;3.16;66.31;101148.75;5030112;27;98078;-83
2023/01/28 08:13:40;;;;;;;20.03;14.97;;;;;;;3.08;66.43;101146.94;5011525;27;101576;-83
2023/01/28 08:16:06;;;;;;;19.90;14.93;;;;;;;3.14;66.69;101158.25;5014700;27;97431;-82
2023/01/28 08:18:31;;;;;;;19.00;14.77;;;;;;;3.13;66.26;101150.44;5020900;27;97215;-83
2023/01/28 08:20:58;;;;;;;19.27;15.03;;;;;;;3.15;66.63;101160.00;5015521;27;101178;-82
2023/01/28 08:23:25;;;;;;;21.67;15.40;;;;;;;3.03;66.58;101146.91;5014928;27;101076;-82
2023/01/28 08:25:52;;;;;;;20.17;15.47;;;;;;;3.16;66.45;101168.63;5030189;27;96876;-85
2023/01/28 08:28:19;;;;;;;21.03;16.07;;;;;;;3.19;66.39;101166.06;5015871;27;98091;-83
2023/01/28 08:30:45;;;;;;;21.67;15.73;;;;;;;3.15;66.68;101160.00;5024017;27;97497;-83
2023/01/28 08:33:13;;;;;;;22.63;16.37;;;;;;;3.06;66.69;101159.91;4998617;27;101344;-82
2023/01/28 08:35:39;;;;;;;23.47;15.50;;;;;;;3.05;66.50;101152.09;5021335;27;97083;-84
2023/01/28 08:38:06;;;;;;;21.93;15.47;;;;;;;3.14;66.72;101160.84;5049688;27;97608;-83
2023/01/28 08:40:31;;;;;;;20.17;15.50;;;;;;;3.19;66.27;101168.66;5036305;27;101399;-82
2023/01/28 08:42:57;;;;;;;21.97;15.37;;;;;;;3.18;66.56;101175.59;5020198;27;101730;-83
2023/01/28 08:45:25;;;;;;;20.23;15.57;;;;;;;3.18;66.15;101179.91;4997596;27;97321;-86
2023/01/28 08:47:52;;;;;;;19.17;15.17;;;;;;;3.07;66.82;101159.03;5026256;27;97586;-83
2023/01/28 08:50:19;;;;;;;19.67;15.20;;;;;;;3.19;66.29;101179.06;5016592;27;101430;-81
2023/01/28 08:52:46;;;;;;;19.37;14.93;;;;;;;3.17;66.26;101173.88;4996972;27;101140;-82
2023/01/28 08:55:12;;;;;;;18.73;14.10;;;;;;;3.17;66.32;101175.56;5015825;27;97213;-80
2023/01/28 08:57:38;;;;;;;19.17;14.30;;;;;;;3.06;65.98;101159.91;5030248;27;98106;-84
2023/01/28 09:00:06;;;;;;;23.57;14.67;;;;;;;2.97;66.13;101136.47;5036413;27;101371;-84
2023/01/28 09:02:31;;;;;;;19.80;14.37;;;;;;;3.13;66.00;101166.03;5015131;27;101342;-84
2023/01/28 09:04:57;;;;;;;18.80;14.87;;;;;;;3.19;66.45;101171.25;5021577;27;97185;-84
2023/01/28 09:07:22;;;;;;;20.70;15.33;;;;;;;3.03;66.20;101146.03;5025157;27;98350;-84
2023/01/28 09:09:48;;;;;;;19.53;15.27;;;;;;;3.17;66.24;101162.59;5039253;27;101025;-83
2023/01/28 09:12:14;;;;;;;19.67;14.37;;;;;;;3.20;65.86;101167.84;5019187;27;101614;-83
2023/01/28 09:14:39;;;;;;;18.47;15.20;;;;;;;3.18;66.37;101174.72;5027762;27;97260;-83
2023/01/28 09:17:05;;;;;;;19.77;15.23;;;;;;;3.17;66.39;101175.56;5020631;27;97205;-83
2023/01/28 09:19:30;;;;;;;23.97;15.60;;;;;;;3.20;66.54;101182.50;5011526;27;101306;-83
2023/01/28 09:21:56;;;;;;;21.00;15.57;;;;;;;3.11;66.23;101172.91;4987830;28;101353;-84
2023/01/28 09:24:21;;;;;;;19.77;15.40;;;;;;;3.16;66.50;101179.03;4995430;28;97170;-84
2023/01/28 09:26:48;;;;;;;22.20;15.20;;;;;;;3.17;66.62;101189.44;4997225;28;97198;-83
2023/01/28 09:29:14;;;;;;;20.63;16.07;;;;;;;3.16;66.35;101181.63;4973553;28;101668;-83
2023/01/28 09:31:40;;;;;;;18.30;14.53;;;;;;;3.10;66.41;101174.63;5001546;28;97951;-84
2023/01/28 09:34:06;;;;;;;18.87;14.30;;;;;;;3.22;66.77;101192.06;4969800;28;97158;-84
2023/01/28 09:36:32;;;;;;;22.20;15.40;;;;;;;3.18;66.34;101191.16;4992702;28;97271;-84
2023/01/28 09:38:58;;;;;;;17.97;13.63;;;;;;;3.16;66.54;101199.78;4995179;28;97480;-84
2023/01/28 09:41:41;;;;;;;15.07;12.60;;;;;;;3.19;66.29;101202.41;4978432;28;101401;-84
2023/01/28 09:44:19;;;;;;;17.53;13.73;;;;;;;3.22;66.26;101207.63;5013619;27;97385;-84
2023/01/28 09:46:44;;;;;;;16.70;12.63;;;;;;;3.21;65.98;101203.28;4995560;28;97270;-85
2023/01/28 09:49:21;;;;;;;15.67;11.47;;;;;;;3.18;66.08;101193.75;5007152;27;98591;-84
2023/01/28 09:51:51;;;;;;;13.60;11.13;;;;;;;3.20;66.04;101200.66;4985511;28;101400;-84
2023/01/28 09:54:25;;;;;;;13.30;11.23;;;;;;;3.24;65.68;101202.47;5003717;28;97231;-84
2023/01/28 09:57:04;;;;;;;15.03;11.83;;;;;;;3.22;65.98;101206.75;5007872;28;97299;-84
2023/01/28 09:59:32;;;;;;;12.07;10.63;;;;;;;3.26;65.86;101209.41;5003229;28;101515;-84
2023/01/28 10:02:17;;;;;;;14.87;11.53;;;;;;;3.26;65.95;101201.63;4992938;27;101811;-83
2023/01/28 10:04:58;;;;;;;14.40;11.43;;;;;;;3.24;65.95;101199.88;5015114;27;97330;-84
2023/01/28 10:07:34;;;;;;;15.90;12.57;;;;;;;3.24;66.01;101205.91;4984428;28;96846;-83
2023/01/28 10:10:19;;;;;;;18.60;12.83;;;;;;;3.23;65.83;101200.69;4975809;27;101538;-84
2023/01/28 10:13:23;;;;;;;14.10;11.77;;;;;;;3.24;65.86;101205.91;5003053;28;97878;-83
2023/01/28 10:16:04;;;;;;;16.80;12.67;;;;;;;3.23;66.00;101206.78;5000375;28;97351;-84
2023/01/28 10:18:41;;;;;;;15.90;12.93;;;;;;;3.23;66.09;101211.97;4981517;28;97232;-84
2023/01/28 10:21:22;;;;;;;19.03;13.50;;;;;;;3.22;66.45;101199.84;4988818;28;97660;-83
2023/01/28 10:24:01;;;;;;;17.70;13.40;;;;;;;3.24;66.00;101199.88;4993128;28;100232;-85
2023/01/28 10:26:34;;;;;;;15.90;12.93;;;;;;;3.20;66.44;101200.66;5015873;28;97293;-83
2023/01/28 10:29:08;;;;;;;17.13;12.57;;;;;;;3.17;66.38;101197.22;4994131;28;97219;-84
2023/01/28 10:31:36;;;;;;;16.77;12.97;;;;;;;3.14;65.94;101189.41;5021704;27;100875;-84
2023/01/28 10:34:03;;;;;;;16.97;12.93;;;;;;;3.20;66.09;101196.38;5039398;27;97387;-84
2023/01/28 10:36:29;;;;;;;16.97;12.70;;;;;;;3.22;65.43;101207.63;5005662;27;97215;-85
2023/01/28 10:38:54;;;;;;;14.97;11.93;;;;;;;3.25;65.44;101210.25;4998300;28;97234;-85
2023/01/28 10:41:21;;;;;;;19.97;13.47;;;;;;;3.14;65.67;101183.31;5002494;28;101433;-83
2023/01/28 10:43:47;;;;;;;14.43;11.97;;;;;;;3.23;65.34;101201.59;4995220;28;101330;-80
2023/01/28 10:46:16;;;;;;;15.83;10.50;;;;;;;3.26;65.50;101204.22;5005983;28;97642;-80
2023/01/28 10:48:46;;;;;;;14.00;11.17;;;;;;;3.24;64.93;101205.91;4994773;28;97600;-81
2023/01/28 10:51:11;;;;;;;16.70;11.13;;;;;;;3.26;65.50;101204.22;4993485;28;100071;-82
2023/01/28 10:53:38;;;;;;;14.97;10.73;;;;;;;3.26;65.32;101201.63;4977253;27;100058;-80
2023/01/28 10:56:06;;;;;;;12.93;10.07;;;;;;;3.13;65.02;101173.81;4989848;28;97238;-77
2023/01/28 10:58:34;;;;;;;12.57;10.30;;;;;;;3.25;64.89;101201.59;5010456;27;96859;-76
2023/01/28 11:01:02;;;;;;;12.13;9.80;;;;;;;3.27;65.02;101207.69;4992029;28;101412;-77
2023/01/28 11:03:31;;;;;;;11.80;9.40;;;;;;;3.23;64.82;101190.31;4968627;28;101177;-76
2023/01/28 11:05:57;;;;;;;13.33;9.73;;;;;;;3.23;64.57;101206.78;5010874;28;96965;-76
2023/01/28 11:08:25;;;;;;;12.77;9.00;;;;;;;3.13;64.82;101191.97;5003429;28;101449;-77
2023/01/28 11:10:51;;;;;;;14.97;9.57;;;;;;;3.09;64.61;101188.47;5004460;28;98545;-77
2023/01/28 11:13:17;;;;;;;10.77;8.57;;;;;;;3.26;64.57;101211.09;4975430;28;101492;-79
2023/01/28 11:16:11;;;;;;;10.47;8.70;;;;;;;3.25;64.30;101201.59;4999554;27;97334;-77
2023/01/28 11:18:47;;;;;;;9.57;7.90;;;;;;;3.18;64.45;101203.25;4995456;28;97529;-78
2023/01/28 11:21:19;;;;;;;11.53;7.57;;;;;;;3.13;64.13;101195.41;4994271;28;98060;-77
2023/01/28 11:23:59;;;;;;;9.52;7.53;;;;;;;3.24;64.16;101211.13;5024361;27;98044;-77
2023/01/28 11:26:27;;;;;;;11.50;7.70;;;;;;;3.28;64.35;101197.28;5010262;27;97145;-82
2023/01/28 11:28:54;;;;;;;9.47;7.27;;;;;;;3.15;63.78;101175.56;5016181;27;97403;-79
2023/01/28 11:31:20;;;;;;;10.03;6.70;;;;;;;3.29;63.58;101190.41;5015437;27;98327;-81
2023/01/28 11:34:00;;;;;;;9.97;7.00;;;;;;;3.17;63.53;101167.78;4996519;28;101617;-82
2023/01/28 11:36:30;;;;;;;10.37;7.33;;;;;;;3.11;63.56;101162.53;4995533;28;97364;-78
2023/01/28 11:39:24;;;;;;;11.67;7.70;;;;;;;3.34;63.52;101205.13;4989035;28;96947;-81
2023/01/28 11:41:51;;;;;;;9.43;6.50;;;;;;;3.37;63.04;101196.50;4977593;28;101727;-83
2023/01/28 11:44:20;;;;;;;10.00;6.63;;;;;;;3.35;63.31;101196.53;5024563;27;100129;-84
2023/01/28 11:46:48;;;;;;;8.03;5.77;;;;;;;3.38;62.94;101214.72;4999042;28;97142;-84
2023/01/28 11:49:39;;;;;;;8.80;6.03;;;;;;;3.35;62.77;101201.72;5011782;27;97184;-82
2023/01/28 11:52:23;;;;;;;8.30;6.27;;;;;;;3.37;62.68;101205.19;4996630;28;101547;-84
2023/01/28 11:54:54;;;;;;;11.40;6.43;;;;;;;3.39;62.68;101198.28;5025607;27;98091;-82
2023/01/28 11:57:26;;;;;;;8.23;6.13;;;;;;;3.26;62.62;101183.47;5018456;27;97861;-84